createdAt,value
2018-06-19T00:01:25.577Z,96.49
2018-06-19T00:03:54.841Z,96.12
2018-06-19T00:06:24.354Z,96.23
2018-06-19T00:08:53.883Z,96.22
2018-06-19T00:11:23.319Z,96.73
2018-06-19T00:13:52.828Z,96.48
2018-06-19T00:16:22.387Z,96.75
2018-06-19T00:18:57.492Z,96.59
2018-06-19T00:21:48.415Z,95.68
2018-06-19T00:24:18.133Z,95.75
2018-06-19T00:26:47.987Z,95.51
2018-06-19T00:29:17.393Z,95.82
2018-06-19T00:31:46.601Z,95.16
2018-06-19T00:34:16.125Z,95.39
2018-06-19T00:36:45.877Z,95.29
2018-06-19T00:39:15.503Z,95.76
2018-06-19T00:41:45.380Z,95.25
2018-06-19T00:44:14.987Z,95.35
2018-06-19T00:46:48.513Z,95.39
2018-06-19T00:49:18.516Z,95.29
2018-06-19T00:51:48.075Z,95.29
2018-06-19T00:54:17.539Z,95.63
2018-06-19T00:56:56.803Z,95.31
2018-06-19T00:59:26.269Z,95.06
2018-06-19T01:01:58.626Z,95.23
2018-06-19T01:04:28.533Z,95.01
2018-06-19T01:06:58.114Z,95.11
2018-06-19T01:09:27.400Z,94.79
2018-06-19T01:11:56.682Z,94.32
2018-06-19T01:14:26.212Z,95.28
2018-06-19T01:16:55.335Z,95.09
2018-06-19T01:19:25.104Z,94.52
2018-06-19T01:21:55.829Z,94.75
2018-06-19T01:24:25.309Z,94.32
2018-06-19T01:26:54.962Z,94.86
2018-06-19T01:29:25.645Z,94.16
2018-06-19T01:31:56.061Z,94.35
2018-06-19T01:34:25.527Z,94.73
2018-06-19T01:36:55.129Z,94.28
2018-06-19T01:39:25.626Z,93.68
2018-06-19T01:41:55.233Z,94.11
2018-06-19T01:44:24.766Z,94.43
2018-06-19T01:46:54.899Z,93.68
2018-06-19T01:49:25.190Z,93.93
2018-06-19T01:51:54.610Z,94.06
2018-06-19T01:54:24.661Z,94.44
2018-06-19T01:56:53.836Z,93.88
2018-06-19T01:59:23.277Z,93.97
2018-06-19T02:01:52.747Z,94.70
2018-06-19T02:04:22.249Z,94.73
2018-06-19T02:06:52.081Z,94.47
2018-06-19T02:09:22.189Z,94.42
2018-06-19T02:11:51.747Z,94.01
2018-06-19T02:14:21.214Z,94.15
2018-06-19T02:16:50.786Z,93.94
2018-06-19T02:19:20.298Z,94.36
2018-06-19T02:21:49.790Z,93.74
2018-06-19T02:24:19.462Z,93.50
2018-06-19T02:26:49.549Z,93.78
2018-06-19T02:29:19.048Z,93.64
2018-06-19T02:31:49.077Z,93.34
2018-06-19T02:34:18.569Z,93.19
2018-06-19T02:36:48.066Z,93.13
2018-06-19T02:39:17.516Z,93.21
2018-06-19T02:41:46.823Z,93.50
2018-06-19T02:44:16.310Z,93.21
2018-06-19T02:46:45.817Z,92.81
2018-06-19T02:49:15.426Z,92.79
2018-06-19T02:51:45.008Z,92.96
2018-06-19T02:54:14.475Z,91.91
2018-06-19T02:56:43.645Z,92.16
2018-06-19T02:59:13.140Z,92.49
2018-06-19T03:01:42.869Z,92.22
2018-06-19T03:04:12.056Z,91.70
2018-06-19T03:06:41.576Z,92.28
2018-06-19T03:09:11.762Z,91.97
2018-06-19T03:11:41.241Z,91.76
2018-06-19T03:14:10.753Z,92.30
2018-06-19T03:16:40.309Z,91.65
2018-06-19T03:19:09.749Z,91.69
2018-06-19T03:21:39.318Z,91.72
2018-06-19T03:24:08.833Z,91.14
2018-06-19T03:26:38.038Z,91.03
2018-06-19T03:29:07.363Z,91.22
2018-06-19T03:31:36.834Z,91.18
2018-06-19T03:34:06.849Z,90.92
2018-06-19T03:36:36.749Z,90.13
2018-06-19T03:39:10.524Z,89.66
2018-06-19T03:41:40.185Z,90.47
2018-06-19T03:44:10.099Z,89.64
2018-06-19T03:46:39.559Z,89.70
2018-06-19T03:49:09.083Z,90.20
2018-06-19T03:51:39.318Z,89.70
2018-06-19T03:54:08.770Z,90.20
2018-06-19T03:56:38.246Z,89.69
2018-06-19T03:59:07.722Z,89.69
2018-06-19T04:01:37.185Z,88.51
2018-06-19T04:04:07.161Z,88.61
2018-06-19T04:06:36.637Z,88.35
2018-06-19T04:09:08.907Z,88.69
2018-06-19T04:11:38.612Z,88.57
2018-06-19T04:14:08.164Z,88.44
2018-06-19T04:16:37.763Z,88.40
2018-06-19T04:19:07.371Z,88.07
2018-06-19T04:21:36.971Z,88.23
2018-06-19T04:24:06.707Z,88.03
2018-06-19T04:26:36.384Z,88.06
2018-06-19T04:29:05.966Z,88.23
2018-06-19T04:31:35.431Z,87.92
2018-06-19T04:34:04.952Z,88.48
2018-06-19T04:36:34.827Z,87.77
2018-06-19T04:39:06.568Z,88.35
2018-06-19T04:41:36.022Z,87.47
2018-06-19T04:44:06.331Z,87.13
2018-06-19T04:46:36.835Z,86.85
2018-06-19T04:49:06.345Z,86.99
2018-06-19T04:51:35.971Z,86.93
2018-06-19T04:54:05.476Z,86.34
2018-06-19T04:56:34.897Z,86.96
2018-06-19T04:59:04.352Z,86.24
2018-06-19T05:01:34.110Z,86.36
2018-06-19T05:04:03.573Z,86.04
2018-06-19T05:06:33.366Z,86.84
2018-06-19T05:09:03.381Z,86.48
2018-06-19T05:11:32.993Z,86.09
2018-06-19T05:14:02.442Z,85.73
2018-06-19T05:16:31.946Z,85.98
2018-06-19T05:19:01.430Z,85.75
2018-06-19T05:21:30.908Z,84.86
2018-06-19T05:24:00.289Z,85.34
2018-06-19T05:26:29.864Z,84.40
2018-06-19T05:29:00.797Z,84.61
2018-06-19T05:31:30.747Z,83.82
2018-06-19T05:34:00.816Z,83.46
2018-06-19T05:36:30.442Z,83.78
2018-06-19T05:38:59.920Z,83.37
2018-06-19T05:41:29.450Z,83.50
2018-06-19T05:43:58.969Z,82.79
2018-06-19T05:46:28.610Z,83.61
2018-06-19T05:48:58.632Z,83.00
2018-06-19T05:51:28.151Z,82.65
2018-06-19T05:53:57.540Z,82.02
2018-06-19T05:56:27.109Z,83.43
2018-06-19T05:58:56.569Z,83.10
2018-06-19T06:01:27.445Z,82.40
2018-06-19T06:05:26.250Z,81.69
2018-06-19T06:07:55.791Z,81.79
2018-06-19T06:10:25.479Z,82.08
2018-06-19T06:12:55.442Z,82.03
2018-06-19T06:15:24.625Z,81.80
2018-06-19T06:17:54.635Z,81.75
2018-06-19T06:20:24.097Z,81.15
2018-06-19T06:22:53.997Z,81.73
2018-06-19T06:25:23.545Z,80.61
2018-06-19T06:27:53.097Z,80.61
2018-06-19T06:30:22.379Z,79.91
2018-06-19T06:32:52.551Z,79.63
2018-06-19T06:35:21.990Z,80.14
2018-06-19T06:37:53.869Z,78.77
2018-06-19T06:40:23.390Z,79.41
2018-06-19T06:42:53.605Z,78.64
2018-06-19T06:45:24.155Z,79.10
2018-06-19T06:47:54.346Z,78.64
2018-06-19T06:50:23.865Z,78.33
2018-06-19T06:52:54.333Z,77.91
2018-06-19T06:55:23.951Z,77.79
2018-06-19T06:57:54.033Z,77.36
2018-06-19T07:00:23.748Z,77.60
2018-06-19T07:02:53.331Z,77.13
2018-06-19T07:05:22.929Z,77.62
2018-06-19T07:07:52.395Z,75.90
2018-06-19T07:10:22.514Z,75.84
2018-06-19T07:12:52.037Z,76.08
2018-06-19T07:15:21.669Z,75.50
2018-06-19T07:17:51.301Z,75.15
2018-06-19T07:20:20.714Z,75.44
2018-06-19T07:22:50.714Z,76.14
2018-06-19T07:25:20.237Z,75.81
2018-06-19T07:27:50.027Z,75.10
2018-06-19T07:30:19.609Z,76.00
2018-06-19T07:32:49.325Z,75.43
2018-06-19T07:35:18.865Z,75.00
2018-06-19T07:37:48.869Z,74.60
2018-06-19T07:40:18.465Z,74.97
2018-06-19T07:42:47.992Z,74.75
2018-06-19T07:45:17.595Z,74.64
2018-06-19T07:47:47.723Z,75.48
2018-06-19T07:50:17.219Z,74.81
2018-06-19T07:52:46.752Z,74.88
2018-06-19T07:55:16.645Z,74.51
2018-06-19T07:57:46.701Z,75.65
2018-06-19T08:00:16.262Z,74.76
2018-06-19T08:02:46.679Z,74.58
2018-06-19T08:05:16.162Z,73.67
2018-06-19T08:07:45.828Z,74.26
2018-06-19T08:10:16.914Z,74.34
2018-06-19T08:12:47.697Z,74.86
2018-06-19T08:15:17.906Z,74.55
2018-06-19T08:17:48.640Z,73.96
2018-06-19T08:20:18.701Z,74.17
2018-06-19T08:22:48.000Z,73.96
2018-06-19T08:26:47.385Z,74.20
2018-06-19T08:29:17.161Z,74.40
2018-06-19T08:31:49.420Z,73.57
2018-06-19T08:34:19.610Z,72.89
2018-06-19T08:36:49.215Z,73.84
2018-06-19T08:39:18.764Z,73.37
2018-06-19T08:41:48.312Z,73.09
2018-06-19T08:44:18.034Z,74.06
2018-06-19T08:46:47.611Z,73.74
2018-06-19T08:49:18.071Z,75.59
2018-06-19T08:51:47.514Z,77.14
2018-06-19T08:54:17.745Z,77.74
2018-06-19T08:56:47.359Z,79.55
2018-06-19T08:59:17.012Z,79.12
2018-06-19T09:01:46.939Z,79.83
2018-06-19T09:04:16.486Z,78.27
2018-06-19T09:06:46.049Z,79.28
2018-06-19T09:09:15.743Z,79.11
2018-06-19T09:11:45.359Z,79.51
2018-06-19T09:14:15.054Z,79.95
2018-06-19T09:16:44.575Z,81.51
2018-06-19T09:19:14.166Z,81.60
2018-06-19T09:21:44.727Z,82.01
2018-06-19T09:24:16.389Z,83.01
2018-06-19T09:26:47.039Z,85.28
2018-06-19T09:29:17.169Z,86.27
2018-06-19T09:31:47.010Z,86.40
2018-06-19T09:34:16.570Z,86.55
2018-06-19T09:36:46.794Z,87.27
2018-06-19T09:39:16.682Z,87.00
2018-06-19T09:41:46.344Z,87.39
2018-06-19T09:44:16.115Z,86.45
2018-06-19T09:46:46.161Z,86.50
2018-06-19T09:49:15.429Z,85.81
2018-06-19T09:51:46.885Z,85.33
2018-06-19T09:54:16.365Z,85.39
2018-06-19T09:56:45.844Z,86.26
2018-06-19T09:59:17.276Z,85.38
2018-06-19T10:01:47.844Z,85.31
2018-06-19T10:04:17.301Z,85.55
2018-06-19T10:06:47.390Z,85.58
2018-06-19T10:09:17.305Z,85.70
2018-06-19T10:11:47.052Z,85.27
2018-06-19T10:14:17.144Z,85.31
2018-06-19T10:16:46.728Z,84.58
2018-06-19T10:19:16.560Z,85.32
2018-06-19T10:21:46.196Z,85.35
2018-06-19T10:24:15.808Z,84.38
2018-06-19T10:26:45.467Z,84.80
2018-06-19T10:29:15.058Z,84.61
2018-06-19T10:31:44.690Z,83.94
2018-06-19T10:34:14.251Z,83.56
2018-06-19T10:36:43.769Z,81.83
2018-06-19T10:39:12.935Z,82.38
2018-06-19T10:41:42.410Z,81.46
2018-06-19T10:44:11.937Z,80.97
2018-06-19T10:46:41.477Z,79.25
2018-06-19T10:49:10.902Z,80.58
2018-06-19T10:51:40.448Z,79.96
2018-06-19T10:54:10.411Z,80.28
2018-06-19T10:56:40.741Z,79.77
2018-06-19T10:59:10.181Z,79.01
2018-06-19T11:01:40.136Z,77.10
2018-06-19T11:04:09.578Z,76.01
2018-06-19T11:06:38.847Z,75.33
2018-06-19T11:09:11.921Z,74.16
2018-06-19T11:11:42.160Z,74.63
2018-06-19T11:14:12.147Z,73.40
2018-06-19T11:16:41.742Z,72.71
2018-06-19T11:19:11.294Z,71.47
2018-06-19T11:21:40.676Z,69.77
2018-06-19T11:24:10.149Z,68.37
2018-06-19T11:26:39.599Z,68.53
2018-06-19T11:29:09.099Z,69.35
2018-06-19T11:31:38.594Z,69.15
2018-06-19T11:34:08.217Z,69.58
2018-06-19T11:36:38.667Z,68.29
2018-06-19T11:39:11.550Z,67.83
2018-06-19T11:41:41.164Z,68.64
2018-06-19T11:44:10.848Z,69.72
2018-06-19T11:46:40.929Z,70.75
2018-06-19T11:49:11.732Z,71.66
2018-06-19T11:51:42.054Z,71.76
2018-06-19T11:54:11.716Z,71.81
2018-06-19T11:56:41.531Z,71.91
2018-06-19T11:59:11.274Z,72.71
2018-06-19T12:01:40.722Z,72.97
2018-06-19T12:04:10.643Z,72.88
2018-06-19T12:06:40.346Z,72.85
2018-06-19T12:09:10.778Z,72.45
2018-06-19T12:11:41.579Z,71.74
2018-06-19T12:14:12.120Z,70.76
2018-06-19T12:16:46.497Z,68.77
2018-06-19T12:19:16.636Z,66.67
2018-06-19T12:21:46.628Z,66.26
2018-06-19T12:24:17.049Z,65.82
2018-06-19T12:26:46.830Z,64.72
2018-06-19T12:29:16.338Z,66.25
2018-06-19T12:31:45.688Z,66.32
2018-06-19T12:34:15.135Z,66.49
2018-06-19T12:36:44.715Z,66.28
2018-06-19T12:39:14.328Z,65.37
2018-06-19T12:41:46.223Z,65.88
2018-06-19T12:44:16.417Z,66.42
2018-06-19T12:46:46.261Z,66.33
2018-06-19T12:50:23.993Z,67.09
2018-06-19T12:54:08.503Z,65.95
2018-06-19T12:56:38.002Z,67.06
2018-06-19T12:59:07.418Z,66.93
2018-06-19T13:01:36.970Z,66.08
2018-06-19T13:04:23.398Z,65.16
2018-06-19T13:06:52.853Z,59.78
2018-06-19T13:09:22.263Z,59.81
2018-06-19T13:11:51.944Z,60.43
2018-06-19T13:14:37.383Z,61.08
2018-06-19T13:17:23.822Z,60.11
2018-06-19T13:20:10.715Z,57.27
2018-06-19T13:22:40.210Z,55.68
2018-06-19T13:25:09.612Z,52.42
2018-06-19T13:27:39.234Z,52.12
2018-06-19T13:30:25.698Z,55.06
2018-06-19T13:32:54.885Z,55.80
2018-06-19T13:35:25.619Z,53.67
2018-06-19T13:37:55.638Z,54.30
2018-06-19T13:41:16.450Z,57.39
2018-06-19T13:44:04.761Z,59.30
2018-06-19T13:46:34.869Z,60.02
2018-06-19T13:49:06.216Z,59.63
2018-06-19T13:51:35.820Z,59.49
2018-06-19T13:54:05.479Z,58.17
2018-06-19T13:57:50.769Z,56.06
2018-06-19T14:00:21.749Z,55.09
2018-06-19T14:02:51.305Z,55.97
2018-06-19T14:05:21.212Z,57.50
2018-06-19T14:08:13.994Z,55.12
2018-06-19T14:11:00.349Z,54.73
2018-06-19T14:13:29.979Z,55.23
2018-06-19T14:16:01.982Z,55.95
2018-06-19T14:18:31.565Z,56.87
2018-06-19T14:21:03.084Z,57.74
2018-06-19T14:23:33.796Z,56.60
2018-06-19T14:26:03.759Z,56.42
2018-06-19T14:28:34.473Z,57.27
2018-06-19T14:31:04.006Z,59.35
2018-06-19T14:33:33.398Z,60.25
2018-06-19T14:36:04.387Z,61.73
2018-06-19T14:38:34.642Z,61.41
2018-06-19T14:41:04.487Z,62.46
2018-06-19T14:43:35.501Z,62.91
2018-06-19T14:46:05.899Z,62.69
2018-06-19T14:48:35.422Z,62.12
2018-06-19T14:51:05.294Z,60.57
2018-06-19T14:53:34.840Z,58.16
2018-06-19T14:56:04.304Z,57.66
2018-06-19T14:58:34.410Z,58.47
2018-06-19T15:01:03.902Z,58.63
2018-06-19T15:03:33.880Z,58.66
2018-06-19T15:06:03.394Z,57.50
2018-06-19T15:08:32.851Z,57.44
2018-06-19T15:11:03.371Z,57.40
2018-06-19T15:13:33.685Z,59.20
2018-06-19T15:16:03.730Z,56.73
2018-06-19T15:18:35.246Z,55.60
2018-06-19T15:21:05.628Z,54.29
2018-06-19T15:23:35.206Z,51.61
2018-06-19T15:26:06.347Z,49.03
2018-06-19T15:28:37.888Z,48.34
2018-06-19T15:31:08.864Z,48.10
2018-06-19T15:33:40.377Z,46.51
2018-06-19T15:36:10.375Z,47.63
2018-06-19T15:38:40.250Z,46.01
2018-06-19T15:41:10.015Z,45.17
2018-06-19T15:43:39.559Z,43.69
2018-06-19T15:46:09.437Z,43.38
2018-06-19T15:48:40.202Z,43.82
2018-06-19T15:51:11.132Z,44.19
2018-06-19T15:53:40.634Z,43.51
2018-06-19T15:56:10.264Z,38.62
2018-06-19T15:58:40.354Z,40.25
2018-06-19T16:01:09.995Z,39.66
2018-06-19T16:03:40.810Z,38.69
2018-06-19T16:06:11.306Z,38.68
2018-06-19T16:08:42.246Z,40.06
2018-06-19T16:11:12.008Z,40.03
2018-06-19T16:13:41.782Z,39.83
2018-06-19T16:16:13.165Z,39.24
2018-06-19T16:18:42.935Z,39.29
2018-06-19T16:21:12.508Z,40.76
2018-06-19T16:23:42.346Z,39.95
2018-06-19T16:26:12.172Z,41.04
2018-06-19T16:28:42.633Z,40.22
2018-06-19T16:31:12.520Z,41.16
2018-06-19T16:33:42.070Z,41.07
2018-06-19T16:36:11.512Z,42.43
2018-06-19T16:38:41.093Z,41.67
2018-06-19T16:41:10.851Z,41.39
2018-06-19T16:43:40.845Z,40.95
2018-06-19T16:46:10.385Z,40.09
2018-06-19T16:48:39.882Z,39.88
2018-06-19T16:51:09.636Z,39.86
2018-06-19T16:53:39.205Z,40.94
2018-06-19T16:56:08.682Z,41.13
2018-06-19T16:58:38.126Z,40.50
2018-06-19T17:01:08.464Z,42.96
2018-06-19T17:03:37.886Z,43.82
2018-06-19T17:06:07.365Z,42.23
2018-06-19T17:08:36.932Z,43.11
2018-06-19T17:11:06.677Z,43.39
2018-06-19T17:13:36.211Z,45.30
2018-06-19T17:16:06.125Z,46.12
2018-06-19T17:18:35.594Z,46.67
2018-06-19T17:21:05.055Z,45.78
2018-06-19T17:23:34.545Z,46.64
2018-06-19T17:26:04.141Z,47.52
2018-06-19T17:28:33.556Z,46.66
2018-06-19T17:31:03.316Z,48.80
2018-06-19T17:33:32.926Z,48.43
2018-06-19T17:36:02.585Z,47.88
2018-06-19T17:38:32.015Z,48.66
2018-06-19T17:41:01.332Z,48.96
2018-06-19T17:43:30.870Z,49.72
2018-06-19T17:46:00.480Z,50.63
2018-06-19T17:48:30.100Z,50.21
2018-06-19T17:51:00.161Z,50.36
2018-06-19T17:53:29.958Z,50.53
2018-06-19T17:56:00.116Z,50.40
2018-06-19T17:58:29.590Z,50.38
2018-06-19T18:00:59.060Z,51.02
2018-06-19T18:03:28.658Z,51.03
2018-06-19T18:05:58.672Z,51.28
2018-06-19T18:08:28.628Z,50.73
2018-06-19T18:12:27.501Z,50.82
2018-06-19T18:14:59.696Z,51.16
2018-06-19T18:17:29.780Z,51.31
2018-06-19T18:19:59.620Z,51.47
2018-06-19T18:22:30.853Z,51.75
2018-06-19T18:25:01.584Z,52.45
2018-06-19T18:27:31.294Z,53.02
2018-06-19T18:30:03.569Z,54.33
2018-06-19T18:32:33.050Z,55.35
2018-06-19T18:35:02.861Z,55.30
2018-06-19T18:37:33.420Z,55.60
2018-06-19T18:40:03.694Z,56.20
2018-06-19T18:42:34.035Z,56.63
2018-06-19T18:45:03.601Z,56.75
2018-06-19T18:47:34.081Z,56.84
2018-06-19T18:50:03.794Z,56.33
2018-06-19T18:52:33.851Z,56.94
2018-06-19T18:55:03.492Z,57.26
2018-06-19T18:57:36.494Z,58.04
2018-06-19T19:00:08.111Z,58.33
2018-06-19T19:02:38.804Z,58.72
2018-06-19T19:05:08.536Z,58.64
2018-06-19T19:07:39.777Z,59.81
2018-06-19T19:10:15.273Z,59.98
2018-06-19T19:12:45.069Z,60.03
2018-06-19T19:15:20.824Z,60.48
2018-06-19T19:17:56.993Z,61.05
2018-06-19T19:20:27.222Z,61.78
2018-06-19T19:22:58.074Z,61.58
2018-06-19T19:25:27.715Z,62.06
2018-06-19T19:28:02.731Z,61.88
2018-06-19T19:30:32.578Z,62.88
2018-06-19T19:33:04.253Z,63.19
2018-06-19T19:35:33.905Z,63.77
2018-06-19T19:38:08.705Z,64.48
2018-06-19T19:40:38.454Z,63.97
2018-06-19T19:43:07.783Z,64.13
2018-06-19T19:45:37.347Z,64.67
2018-06-19T19:48:12.151Z,65.22
2018-06-19T19:50:42.889Z,65.34
2018-06-19T19:53:14.172Z,65.26
2018-06-19T19:55:49.369Z,65.57
2018-06-19T19:58:24.093Z,65.87
2018-06-19T20:00:53.738Z,66.57
2018-06-19T20:03:24.449Z,66.87
2018-06-19T20:05:55.058Z,66.74
2018-06-19T20:08:26.687Z,66.17
2018-06-19T20:10:57.434Z,66.92
2018-06-19T20:13:27.296Z,66.77
2018-06-19T20:15:59.077Z,66.85
2018-06-19T20:18:28.914Z,67.23
2018-06-19T20:20:59.527Z,67.43
2018-06-19T20:23:29.359Z,68.33
2018-06-19T20:25:59.034Z,67.80
2018-06-19T20:28:30.085Z,68.27
2018-06-19T20:30:59.402Z,68.54
2018-06-19T20:33:30.341Z,69.06
2018-06-19T20:36:00.539Z,69.37
2018-06-19T20:38:30.454Z,69.29
2018-06-19T20:40:59.952Z,68.72
2018-06-19T20:43:30.669Z,69.55
2018-06-19T20:46:00.975Z,69.50
2018-06-19T20:48:30.538Z,69.61
2018-06-19T20:50:59.987Z,69.55
2018-06-19T20:53:30.631Z,70.03
2018-06-19T20:56:00.766Z,69.69
2018-06-19T20:58:30.905Z,70.83
2018-06-19T21:01:00.779Z,71.01
2018-06-19T21:03:31.115Z,70.61
2018-06-19T21:06:04.661Z,71.20
2018-06-19T21:08:35.870Z,71.48
2018-06-19T21:11:05.617Z,71.27
2018-06-19T21:13:36.032Z,71.05
2018-06-19T21:16:09.888Z,72.48
2018-06-19T21:18:41.205Z,71.94
2018-06-19T21:21:11.123Z,72.33
2018-06-19T21:23:41.691Z,72.17
2018-06-19T21:26:16.470Z,73.14
2018-06-19T21:28:46.207Z,72.12
2018-06-19T21:31:17.633Z,73.50
2018-06-19T21:33:47.774Z,72.56
2018-06-19T21:36:18.225Z,73.18
2018-06-19T21:38:48.103Z,72.90
2018-06-19T21:41:18.591Z,73.65
2018-06-19T21:43:48.393Z,73.62
2018-06-19T21:46:18.144Z,74.09
2018-06-19T21:48:47.873Z,73.82
2018-06-19T21:51:17.904Z,74.41
2018-06-19T21:53:48.655Z,73.57
2018-06-19T21:56:20.243Z,74.11
2018-06-19T21:58:50.031Z,74.54
2018-06-19T22:01:20.580Z,74.17
2018-06-19T22:03:50.452Z,74.93
2018-06-19T22:06:20.856Z,74.34
2018-06-19T22:08:53.615Z,73.36
2018-06-19T22:11:25.269Z,75.53
2018-06-19T22:13:56.195Z,76.84
2018-06-19T22:16:25.932Z,76.59
2018-06-19T22:18:56.628Z,76.61
2018-06-19T22:21:26.452Z,76.33
2018-06-19T22:23:56.856Z,74.79
2018-06-19T22:26:26.972Z,75.32
2018-06-19T22:28:56.990Z,75.43
2018-06-19T22:31:26.629Z,77.46
2018-06-19T22:33:56.724Z,77.98
2018-06-19T22:36:26.921Z,78.26
2018-06-19T22:38:56.877Z,79.18
2018-06-19T22:41:26.542Z,78.78
2018-06-19T22:43:57.536Z,78.84
2018-06-19T22:46:27.497Z,79.22
2018-06-19T22:48:58.207Z,78.04
2018-06-19T22:51:29.803Z,80.20
2018-06-19T22:53:59.592Z,81.82
2018-06-19T22:56:29.321Z,82.13
2018-06-19T22:59:00.077Z,81.13
2018-06-19T23:01:29.933Z,82.06
2018-06-19T23:04:00.027Z,81.92
2018-06-19T23:06:31.084Z,82.52
2018-06-19T23:09:00.865Z,83.27
2018-06-19T23:11:30.231Z,82.08
2018-06-19T23:14:00.323Z,82.04
2018-06-19T23:16:30.091Z,81.73
2018-06-19T23:18:59.484Z,82.60
2018-06-19T23:21:29.173Z,82.39
2018-06-19T23:23:59.186Z,84.55
2018-06-19T23:26:28.751Z,83.68
2018-06-19T23:28:58.813Z,84.29
2018-06-19T23:31:29.153Z,85.27
2018-06-19T23:33:59.513Z,85.09
2018-06-19T23:36:29.146Z,85.28
2018-06-19T23:38:59.430Z,84.32
2018-06-19T23:41:29.227Z,83.76
2018-06-19T23:43:58.904Z,83.23
2018-06-19T23:46:29.271Z,80.72
2018-06-19T23:48:59.506Z,82.33
2018-06-19T23:51:30.094Z,83.37
2018-06-19T23:53:59.830Z,85.46
2018-06-19T23:56:30.768Z,85.26
2018-06-19T23:59:00.563Z,84.62
